Terminal Aerodrome Forecast
Issued by NWS

Home | Current Version | Previous Version | Text Only | Print | Product List | Glossary On
Versions: 1 2 3 4 5 6 7 8 9 10 11 12 13 14 15 16
000
FTUS45 KMSO 290536
TAFSMN
TAF
KSMN 290536Z 2906/3006 VRB04KT P6SM SCT120
     FM291600 20010KT 4SM FU BKN120
     FM292200 22017G30KT P6SM VCTS BKN100CB
     FM300200 22010G20KT P6SM VCSH BKN100
      AMD LTD TO CLD VIS AND WIND=

USA.gov is the U.S. government's official web portal to all federal, state and local government web resources and services.